Time;durP1;ratioP1;P1;durP2;ratioP2;P2;SDS_P1;SDS_P2;PMS_P1;PMS_P2;Temp;Humidity;BMP_temperature;BMP_pressure;BME280_temperature;BME280_humidity;BME280_pressure;Samples;Min_cycle;Max_cycle;Signal;HPM_P1;HPM_P2
2022/03/30 00:00:49;;;;;;;35.50;14.98;;;5.00;99.90;;;;;;4881908;29;20495;-84
2022/03/30 00:03:15;;;;;;;39.92;16.83;;;5.00;99.90;;;;;;4881983;29;20517;-84
2022/03/30 00:05:41;;;;;;;33.17;16.40;;;4.90;99.90;;;;;;4898383;29;20147;-85
2022/03/30 00:08:09;;;;;;;37.80;16.48;;;5.00;99.90;;;;;;4898382;29;20505;-84
2022/03/30 00:10:35;;;;;;;33.55;16.02;;;4.80;99.90;;;;;;4881902;29;20052;-84
2022/03/30 00:13:01;;;;;;;36.88;16.85;;;4.70;99.90;;;;;;4898559;29;20495;-84
2022/03/30 00:15:28;;;;;;;35.03;16.50;;;4.60;99.90;;;;;;4881984;29;20403;-84
2022/03/30 00:17:54;;;;;;;33.53;17.48;;;4.60;99.90;;;;;;4882029;29;20097;-85
2022/03/30 00:20:20;;;;;;;31.85;17.60;;;4.30;99.90;;;;;;4881061;29;20456;-84
2022/03/30 00:22:46;;;;;;;42.03;17.20;;;4.20;99.90;;;;;;4865402;29;20415;-84
2022/03/30 00:25:13;;;;;;;40.60;18.65;;;4.10;99.90;;;;;;4881722;29;20100;-84
2022/03/30 00:27:43;;;;;;;36.95;17.17;;;4.20;99.90;;;;;;4896560;29;20064;-84
2022/03/30 00:30:11;;;;;;;42.75;18.77;;;4.10;99.90;;;;;;4881085;29;20056;-84
2022/03/30 00:32:37;;;;;;;37.30;19.52;;;3.90;99.90;;;;;;4881591;29;20439;-84
2022/03/30 00:35:04;;;;;;;38.13;17.40;;;3.80;99.90;;;;;;4880740;29;20055;-84
2022/03/30 00:37:30;;;;;;;39.22;18.92;;;3.80;99.90;;;;;;4865687;29;20409;-84
2022/03/30 00:39:56;;;;;;;37.95;17.80;;;3.70;99.90;;;;;;4898029;29;20045;-84
2022/03/30 00:42:23;;;;;;;41.20;18.45;;;3.70;99.90;;;;;;4881241;29;20355;-84
2022/03/30 00:44:50;;;;;;;36.83;18.88;;;3.70;99.90;;;;;;4880970;29;20056;-84
2022/03/30 00:47:18;;;;;;;38.33;19.05;;;3.70;99.90;;;;;;4881503;29;20411;-84
2022/03/30 00:49:45;;;;;;;40.75;18.05;;;3.70;99.90;;;;;;4881101;29;20415;-85
2022/03/30 00:52:12;;;;;;;36.40;17.58;;;3.80;99.90;;;;;;4880942;29;20080;-84
2022/03/30 00:54:40;;;;;;;43.63;19.58;;;3.80;99.90;;;;;;4897588;29;20060;-84
2022/03/30 00:57:09;;;;;;;38.92;17.95;;;3.80;99.90;;;;;;4865741;29;20048;-84
2022/03/30 00:59:35;;;;;;;40.70;18.23;;;3.90;99.90;;;;;;4881060;29;20052;-84
2022/03/30 01:02:02;;;;;;;47.22;19.25;;;3.80;99.90;;;;;;4865619;29;20080;-84
2022/03/30 01:04:28;;;;;;;43.72;19.15;;;3.90;99.90;;;;;;4865356;29;20483;-84
2022/03/30 01:06:54;;;;;;;37.38;20.98;;;3.90;99.90;;;;;;4865433;29;20048;-84
2022/03/30 01:09:20;;;;;;;42.97;20.00;;;4.00;99.90;;;;;;4865493;29;20060;-84
2022/03/30 01:11:47;;;;;;;39.00;19.00;;;4.00;99.90;;;;;;4881265;29;20398;-84
2022/03/30 01:14:13;;;;;;;48.03;19.50;;;4.00;99.90;;;;;;4880548;29;20064;-84
2022/03/30 01:16:42;;;;;;;39.70;18.38;;;4.00;99.90;;;;;;4880457;29;20064;-84
2022/03/30 01:19:10;;;;;;;37.70;17.10;;;4.00;99.90;;;;;;4897343;29;20052;-84
2022/03/30 01:21:37;;;;;;;39.25;17.92;;;4.10;99.90;;;;;;4880215;29;20064;-84
2022/03/30 01:24:04;;;;;;;39.03;17.80;;;4.10;99.90;;;;;;4864960;29;20085;-85
2022/03/30 01:26:30;;;;;;;39.63;18.17;;;4.10;99.90;;;;;;4880622;29;20087;-85
2022/03/30 01:28:56;;;;;;;37.78;18.27;;;4.20;99.90;;;;;;4880803;29;20114;-85
2022/03/30 01:34:06;;;;;;;40.33;19.67;;;4.10;99.90;;;;;;4880356;29;20076;-84
2022/03/30 01:36:32;;;;;;;45.70;19.10;;;4.00;99.90;;;;;;4880271;29;20060;-84
2022/03/30 01:38:57;;;;;;;41.70;20.20;;;4.00;99.90;;;;;;4883315;29;20135;-84
2022/03/30 01:41:23;;;;;;;46.42;19.70;;;4.00;99.90;;;;;;4901344;29;20095;-84
2022/03/30 01:43:48;;;;;;;43.22;20.48;;;4.00;99.90;;;;;;4901027;29;20044;-85
2022/03/30 01:46:14;;;;;;;52.65;20.65;;;4.00;99.90;;;;;;4901066;29;20068;-84
2022/03/30 01:48:40;;;;;;;44.90;19.80;;;3.90;99.90;;;;;;4884256;29;20049;-83
2022/03/30 01:51:06;;;;;;;40.92;20.00;;;3.90;99.90;;;;;;4884199;29;20052;-84
2022/03/30 01:53:32;;;;;;;39.67;20.60;;;3.90;99.90;;;;;;4901065;29;20380;-84
2022/03/30 01:55:58;;;;;;;41.10;19.10;;;3.90;99.90;;;;;;4901206;29;20183;-84
2022/03/30 01:58:23;;;;;;;38.53;19.50;;;3.90;99.90;;;;;;4884263;29;20088;-84
2022/03/30 02:00:49;;;;;;;44.42;20.23;;;3.90;99.90;;;;;;4884003;29;20053;-84
2022/03/30 02:03:15;;;;;;;44.58;19.70;;;3.90;99.90;;;;;;4868070;29;20135;-84
2022/03/30 02:05:40;;;;;;;45.33;20.25;;;3.90;99.90;;;;;;4883903;29;20105;-84
2022/03/30 02:08:07;;;;;;;41.47;19.85;;;4.40;99.90;;;;;;4884030;29;20467;-84
2022/03/30 02:10:33;;;;;;;40.97;19.08;;;4.00;99.90;;;;;;4868266;29;20057;-84
2022/03/30 02:12:59;;;;;;;49.00;20.42;;;4.10;99.90;;;;;;4884018;29;20503;-84
2022/03/30 02:15:25;;;;;;;39.30;19.70;;;4.10;99.90;;;;;;4900555;29;20054;-84
2022/03/30 02:17:52;;;;;;;40.03;19.70;;;4.20;99.90;;;;;;4900639;29;20048;-84
2022/03/30 02:20:18;;;;;;;41.92;18.80;;;4.20;99.90;;;;;;4868329;29;20060;-84
2022/03/30 02:22:44;;;;;;;37.78;18.88;;;4.20;99.90;;;;;;4900308;29;20064;-84
2022/03/30 02:25:10;;;;;;;40.92;20.30;;;4.10;99.90;;;;;;4900458;29;20080;-84
2022/03/30 02:27:36;;;;;;;37.13;19.85;;;4.10;99.90;;;;;;4883797;29;20130;-84
2022/03/30 02:30:03;;;;;;;50.00;20.77;;;4.10;99.90;;;;;;4883831;29;20124;-84
2022/03/30 02:32:28;;;;;;;41.78;19.85;;;4.00;99.90;;;;;;4900272;29;20083;-84
2022/03/30 02:34:54;;;;;;;49.53;20.08;;;4.00;99.90;;;;;;4883598;29;20091;-84
2022/03/30 02:37:20;;;;;;;42.10;20.42;;;4.00;99.90;;;;;;4900035;29;20052;-84
2022/03/30 02:39:46;;;;;;;40.35;20.55;;;4.00;99.90;;;;;;4900494;29;20076;-84
2022/03/30 02:42:12;;;;;;;44.13;20.13;;;4.00;99.90;;;;;;4883208;29;20052;-84
2022/03/30 02:44:38;;;;;;;47.55;19.63;;;4.10;99.90;;;;;;4900153;29;20052;-84
2022/03/30 02:47:05;;;;;;;44.17;20.90;;;4.10;99.90;;;;;;4883463;29;20144;-84
2022/03/30 02:49:31;;;;;;;43.05;19.77;;;4.20;99.90;;;;;;4882259;29;20135;-84
2022/03/30 02:51:57;;;;;;;42.35;20.20;;;4.20;99.90;;;;;;4882896;29;20059;-84
2022/03/30 02:54:24;;;;;;;41.58;20.08;;;4.20;99.90;;;;;;4882906;29;20056;-84
2022/03/30 02:56:50;;;;;;;44.50;19.95;;;4.30;99.90;;;;;;4898344;29;20399;-84
2022/03/30 02:59:16;;;;;;;39.95;19.67;;;4.70;99.90;;;;;;4883317;29;20061;-84
2022/03/30 03:01:41;;;;;;;47.95;20.70;;;4.40;99.90;;;;;;4883145;29;20061;-84
2022/03/30 03:04:07;;;;;;;35.28;18.52;;;4.50;99.90;;;;;;4898651;29;20123;-84
2022/03/30 03:06:33;;;;;;;45.08;19.95;;;4.70;99.90;;;;;;4898412;29;20495;-84
2022/03/30 03:08:59;;;;;;;42.95;19.85;;;4.50;99.90;;;;;;4899480;29;20558;-84
2022/03/30 03:11:25;;;;;;;42.50;18.20;;;4.50;99.90;;;;;;4882952;29;20091;-84
2022/03/30 03:13:51;;;;;;;49.55;20.25;;;4.50;99.90;;;;;;4899594;29;20135;-84
2022/03/30 03:16:18;;;;;;;45.40;19.38;;;4.50;99.90;;;;;;4882282;29;20124;-85
2022/03/30 03:18:44;;;;;;;44.35;20.02;;;4.60;99.90;;;;;;4882979;29;20115;-84
2022/03/30 03:21:09;;;;;;;38.65;20.27;;;4.60;99.90;;;;;;4882521;29;20126;-84
2022/03/30 03:23:35;;;;;;;43.65;19.60;;;4.60;99.90;;;;;;4882542;29;20036;-84
2022/03/30 03:26:01;;;;;;;48.85;19.58;;;4.70;99.90;;;;;;4867409;29;20139;-84
2022/03/30 03:28:28;;;;;;;46.95;20.77;;;4.70;99.90;;;;;;4882322;29;20057;-84
2022/03/30 03:30:53;;;;;;;39.13;20.17;;;4.60;99.90;;;;;;4897430;29;20140;-84
2022/03/30 03:33:19;;;;;;;41.75;19.95;;;4.70;99.90;;;;;;4898113;29;20173;-85
2022/03/30 03:35:45;;;;;;;40.08;19.15;;;4.60;99.90;;;;;;4898017;29;20052;-84
2022/03/30 03:38:11;;;;;;;42.95;21.27;;;4.60;99.90;;;;;;4866641;29;20059;-85
2022/03/30 03:40:37;;;;;;;40.83;19.33;;;4.50;99.90;;;;;;4867251;29;20057;-84
2022/03/30 03:43:04;;;;;;;40.08;18.58;;;4.50;99.90;;;;;;4882090;29;20045;-84
2022/03/30 03:45:30;;;;;;;41.40;18.17;;;4.50;99.90;;;;;;4899106;29;20052;-84
2022/03/30 03:47:56;;;;;;;51.53;19.98;;;4.50;99.90;;;;;;4898997;29;20066;-84
2022/03/30 03:50:23;;;;;;;41.80;19.80;;;4.60;99.90;;;;;;4898540;29;20112;-84
2022/03/30 03:52:49;;;;;;;41.38;19.42;;;4.90;99.90;;;;;;4882246;29;20044;-84
2022/03/30 03:55:15;;;;;;;34.42;17.65;;;4.60;99.90;;;;;;4896946;29;20099;-84
2022/03/30 06:14:14;;;;;;;16.63;8.32;;;5.60;99.90;;;;;;4893835;29;20075;-84
2022/03/30 06:16:44;;;;;;;18.17;8.40;;;5.70;99.90;;;;;;4880290;29;20506;-84
2022/03/30 06:19:11;;;;;;;17.15;8.07;;;5.70;99.90;;;;;;4879967;29;20144;-84
2022/03/30 06:21:39;;;;;;;18.92;8.10;;;5.80;99.90;;;;;;4896933;29;20059;-84
2022/03/30 06:24:12;;;;;;;14.93;8.77;;;5.90;99.90;;;;;;4880413;29;20044;-84
2022/03/30 06:26:41;;;;;;;17.60;7.82;;;5.90;99.90;;;;;;4868768;29;20480;-83
2022/03/30 06:29:07;;;;;;;16.08;6.78;;;6.00;99.90;;;;;;4884168;29;20088;-85
2022/03/30 06:31:33;;;;;;;15.13;7.50;;;6.00;99.90;;;;;;4870546;29;20602;-83
2022/03/30 06:33:59;;;;;;;13.73;6.25;;;6.20;99.90;;;;;;4885102;29;20124;-83
2022/03/30 06:36:25;;;;;;;7.63;4.30;;;6.30;99.90;;;;;;4880713;29;20057;-84
2022/03/30 06:38:51;;;;;;;5.15;3.67;;;6.40;99.90;;;;;;4890096;29;20380;-84
2022/03/30 06:41:17;;;;;;;6.75;3.25;;;6.40;99.90;;;;;;4893588;29;20091;-83
2022/03/30 06:43:46;;;;;;;5.55;3.10;;;6.40;99.90;;;;;;4868700;29;20143;-84
2022/03/30 06:46:13;;;;;;;7.75;3.20;;;6.40;99.90;;;;;;4883774;29;20392;-84
2022/03/30 06:48:38;;;;;;;6.38;3.25;;;6.20;99.90;;;;;;4868141;29;20059;-83
2022/03/30 06:51:04;;;;;;;7.10;3.58;;;6.20;99.90;;;;;;4900324;29;20135;-84
2022/03/30 06:53:30;;;;;;;4.90;3.33;;;6.20;99.90;;;;;;4883371;29;20056;-84
2022/03/30 06:55:57;;;;;;;6.50;3.58;;;6.20;99.90;;;;;;4883210;29;20044;-83
2022/03/30 06:58:22;;;;;;;7.32;3.95;;;6.20;99.90;;;;;;4883317;29;20049;-83
2022/03/30 07:00:49;;;;;;;5.35;3.90;;;6.30;99.90;;;;;;4867307;29;20127;-84
2022/03/30 07:03:15;;;;;;;5.32;3.63;;;6.40;99.90;;;;;;4867429;29;20455;-84
2022/03/30 07:05:41;;;;;;;5.05;3.38;;;6.40;99.90;;;;;;4899992;29;20064;-83
2022/03/30 07:16:13;;;;;;;4.38;2.97;;;6.70;99.90;;;;;;4897860;29;20140;-84
2022/03/30 07:18:39;;;;;;;6.50;3.40;;;6.80;99.90;;;;;;4897790;29;20448;-84
2022/03/30 07:21:05;;;;;;;3.67;2.95;;;6.90;99.90;;;;;;4882483;29;20060;-84
2022/03/30 07:23:31;;;;;;;3.00;2.58;;;7.00;99.90;;;;;;4899189;29;20045;-84
2022/03/30 07:26:00;;;;;;;6.63;2.88;;;7.00;99.90;;;;;;4867289;29;20137;-85
2022/03/30 07:28:27;;;;;;;4.65;3.13;;;7.10;99.90;;;;;;4882416;29;20131;-85
2022/03/30 07:30:54;;;;;;;2.83;2.22;;;7.20;99.90;;;;;;4882767;29;20152;-85
2022/03/30 07:33:22;;;;;;;3.83;2.50;;;7.30;99.90;;;;;;4882830;29;20053;-85
2022/03/30 07:35:48;;;;;;;3.95;2.13;;;7.70;99.90;;;;;;4882213;29;20054;-85
2022/03/30 07:38:19;;;;;;;3.22;2.03;;;7.50;99.90;;;;;;4882731;29;20051;-84
2022/03/30 07:40:46;;;;;;;3.10;2.10;;;7.50;99.90;;;;;;4866734;29;20064;-84
2022/03/30 07:43:12;;;;;;;2.92;1.73;;;7.60;99.90;;;;;;4899212;29;20143;-84
2022/03/30 07:45:39;;;;;;;2.33;1.42;;;7.60;99.90;;;;;;4899217;29;20049;-84
2022/03/30 07:48:05;;;;;;;4.03;1.48;;;7.60;99.90;;;;;;4866345;29;20061;-85
2022/03/30 07:50:31;;;;;;;2.50;1.73;;;7.70;99.90;;;;;;4866858;29;20399;-84
2022/03/30 07:52:57;;;;;;;4.68;1.48;;;7.80;99.90;;;;;;4882661;29;20067;-84
2022/03/30 07:55:24;;;;;;;3.90;1.60;;;7.80;99.90;;;;;;4882350;29;20419;-85
2022/03/30 07:57:51;;;;;;;4.00;1.90;;;7.80;99.90;;;;;;4898804;29;20130;-84
2022/03/30 08:00:17;;;;;;;3.80;2.50;;;8.00;99.90;;;;;;4898896;29;20048;-84
2022/03/30 08:02:45;;;;;;;3.00;2.20;;;8.20;99.90;;;;;;4866902;29;20189;-84
2022/03/30 08:05:12;;;;;;;2.20;1.70;;;8.40;99.90;;;;;;4881828;29;20044;-84
2022/03/30 08:07:39;;;;;;;3.10;2.03;;;8.60;99.90;;;;;;4882090;29;20052;-85
2022/03/30 08:10:06;;;;;;;3.55;1.60;;;8.80;99.90;;;;;;4866563;29;20056;-84
2022/03/30 08:12:31;;;;;;;3.92;1.40;;;8.90;99.90;;;;;;4866578;29;20053;-84
2022/03/30 08:14:57;;;;;;;4.25;1.80;;;9.10;99.90;;;;;;4882090;29;20055;-84
2022/03/30 08:17:24;;;;;;;7.20;1.98;;;9.00;99.90;;;;;;4898393;29;20084;-85
2022/03/30 08:19:50;;;;;;;2.63;1.30;;;9.00;99.90;;;;;;4898408;29;20067;-85
2022/03/30 08:22:28;;;;;;;2.63;1.52;;;9.00;99.90;;;;;;4898407;29;20045;-85
2022/03/30 08:25:00;;;;;;;4.80;1.58;;;9.00;99.90;;;;;;4881648;29;20055;-85
2022/03/30 08:27:29;;;;;;;2.53;1.38;;;9.30;99.90;;;;;;4897535;29;20052;-85
2022/03/30 08:29:56;;;;;;;4.68;1.60;;;9.10;99.90;;;;;;4881558;29;20519;-84
2022/03/30 08:32:24;;;;;;;3.72;1.50;;;9.20;99.90;;;;;;4898180;29;20091;-85
2022/03/30 08:34:52;;;;;;;2.15;1.73;;;9.30;99.90;;;;;;4881676;29;20503;-85
2022/03/30 08:37:18;;;;;;;6.72;1.48;;;9.30;99.90;;;;;;4866222;29;20435;-85
2022/03/30 08:39:44;;;;;;;5.80;1.80;;;9.40;99.90;;;;;;4881401;29;20135;-85
2022/03/30 08:42:11;;;;;;;1.98;1.45;;;9.40;99.90;;;;;;4865867;29;20087;-84
2022/03/30 08:44:37;;;;;;;5.55;2.00;;;9.50;99.90;;;;;;4881279;29;20060;-84
2022/03/30 08:47:05;;;;;;;2.45;1.83;;;9.60;99.90;;;;;;4897630;29;20048;-84
2022/03/30 08:49:35;;;;;;;8.88;2.15;;;9.60;99.90;;;;;;4865591;29;20048;-84
2022/03/30 08:52:08;;;;;;;6.22;2.58;;;9.60;99.90;;;;;;4898048;29;20044;-84
2022/03/30 08:54:34;;;;;;;3.97;2.50;;;9.50;99.90;;;;;;4898026;29;20048;-85
2022/03/30 08:57:00;;;;;;;2.33;1.98;;;9.40;99.90;;;;;;4865952;29;20063;-84
2022/03/30 08:59:26;;;;;;;5.68;2.20;;;9.60;99.90;;;;;;4897823;29;20092;-85
2022/03/30 09:01:57;;;;;;;4.30;2.20;;;9.80;99.90;;;;;;4865445;29;20384;-85
2022/03/30 09:04:25;;;;;;;4.95;1.90;;;10.20;99.90;;;;;;4881309;29;20084;-85
2022/03/30 09:06:53;;;;;;;5.38;1.90;;;10.40;99.90;;;;;;4881183;29;20053;-84
2022/03/30 09:09:33;;;;;;;4.57;1.65;;;10.90;99.90;;;;;;4865697;29;20123;-86
2022/03/30 09:12:00;;;;;;;4.97;1.98;;;11.30;99.90;;;;;;4881090;29;20407;-84
2022/03/30 09:14:31;;;;;;;3.75;2.50;;;11.40;99.90;;;;;;4865832;29;20041;-86
2022/03/30 09:17:06;;;;;;;8.60;2.60;;;11.10;99.90;;;;;;4897805;29;20372;-84
2022/03/30 09:19:36;;;;;;;4.85;2.60;;;11.00;99.90;;;;;;4897884;29;20064;-84
2022/03/30 09:22:04;;;;;;;6.67;3.27;;;10.90;99.90;;;;;;4866268;29;20392;-84
2022/03/30 09:24:33;;;;;;;5.03;2.90;;;10.80;99.90;;;;;;4897352;29;20056;-83
2022/03/30 09:27:04;;;;;;;6.40;2.50;;;10.60;99.90;;;;;;4897353;29;20475;-85
2022/03/30 09:29:33;;;;;;;5.45;3.40;;;10.70;99.90;;;;;;4880430;29;20116;-84
2022/03/30 09:32:06;;;;;;;6.38;2.67;;;11.20;99.90;;;;;;4865389;29;20056;-85
2022/03/30 09:34:34;;;;;;;5.88;2.15;;;11.90;99.90;;;;;;4880828;29;20048;-85
2022/03/30 09:37:00;;;;;;;3.22;2.10;;;12.80;98.20;;;;;;4880505;29;20068;-85
2022/03/30 09:39:36;;;;;;;4.95;2.40;;;13.60;94.50;;;;;;4896977;29;20048;-85
2022/03/30 09:42:04;;;;;;;3.15;2.45;;;14.40;90.30;;;;;;4880575;29;20115;-85
2022/03/30 09:44:43;;;;;;;3.50;2.22;;;14.90;83.10;;;;;;4865337;29;20052;-83
2022/03/30 09:47:11;;;;;;;5.50;2.30;;;15.20;78.60;;;;;;4880613;29;20062;-83
2022/03/30 09:49:48;;;;;;;5.28;1.90;;;14.80;76.40;;;;;;4897287;29;20373;-84
2022/03/30 09:52:20;;;;;;;4.30;2.00;;;14.10;73.60;;;;;;4880453;29;20044;-84
2022/03/30 09:54:55;;;;;;;5.03;1.77;;;14.00;74.60;;;;;;4897279;29;20513;-84
2022/03/30 09:57:22;;;;;;;3.25;1.52;;;14.20;77.80;;;;;;4865039;29;20064;-85
2022/03/30 10:00:09;;;;;;;4.00;1.80;;;14.70;72.60;;;;;;4882925;29;20056;-84
2022/03/30 10:02:53;;;;;;;4.20;1.50;;;15.30;67.80;;;;;;4884283;29;20056;-84
2022/03/30 10:05:21;;;;;;;4.82;1.95;;;15.80;64.00;;;;;;4868462;29;20056;-85
2022/03/30 10:07:48;;;;;;;4.32;1.90;;;16.10;64.00;;;;;;4901247;29;20514;-85
2022/03/30 10:10:17;;;;;;;3.38;2.10;;;16.00;62.40;;;;;;4900925;29;20141;-84
2022/03/30 10:12:43;;;;;;;2.80;1.88;;;15.70;62.20;;;;;;4901050;29;20048;-84
2022/03/30 10:15:10;;;;;;;5.30;2.65;;;15.60;64.10;;;;;;4868135;29;20068;-84
2022/03/30 10:17:37;;;;;;;3.08;2.10;;;15.60;62.20;;;;;;4903010;29;20417;-86
2022/03/30 10:20:05;;;;;;;5.03;2.50;;;15.00;63.80;;;;;;4897333;29;20052;-82
2022/03/30 10:22:58;;;;;;;4.95;2.40;;;14.30;67.00;;;;;;4892474;29;20053;-85
2022/03/30 10:25:39;;;;;;;7.72;2.67;;;13.80;67.50;;;;;;4902168;29;20045;-85
2022/03/30 10:28:20;;;;;;;7.25;2.10;;;13.30;74.70;;;;;;4868254;29;20128;-85
2022/03/30 10:30:57;;;;;;;5.55;1.90;;;12.90;77.20;;;;;;4883924;29;20056;-83
2022/03/30 10:33:34;;;;;;;4.45;1.45;;;12.70;83.60;;;;;;4883851;29;20053;-84
2022/03/30 10:36:30;;;;;;;4.22;1.20;;;12.40;85.30;;;;;;4883763;29;20041;-84
2022/03/30 10:39:26;;;;;;;5.18;1.58;;;12.10;88.00;;;;;;4883790;29;20049;-85
2022/03/30 10:42:03;;;;;;;3.80;1.20;;;12.10;91.20;;;;;;4827145;29;20061;-86
2022/03/30 10:44:57;;;;;;;4.97;1.17;;;12.20;91.70;;;;;;4842359;29;20144;-84
2022/03/30 10:47:27;;;;;;;2.15;0.90;;;12.60;87.50;;;;;;4842283;29;20505;-85
2022/03/30 10:49:55;;;;;;;3.08;0.95;;;12.90;87.20;;;;;;4827687;29;20474;-85
2022/03/30 10:52:39;;;;;;;3.17;1.13;;;13.10;84.40;;;;;;4842141;29;20565;-85
2022/03/30 10:55:14;;;;;;;2.70;1.20;;;13.50;85.00;;;;;;4827150;29;20412;-84
2022/03/30 10:57:57;;;;;;;3.60;0.90;;;14.00;78.90;;;;;;4843803;29;20053;-84
2022/03/30 11:00:31;;;;;;;3.13;0.93;;;14.70;72.50;;;;;;4826833;29;20145;-84
2022/03/30 11:03:10;;;;;;;3.88;1.02;;;14.80;68.70;;;;;;4811953;29;20100;-85
2022/03/30 11:05:37;;;;;;;3.83;1.02;;;14.80;68.20;;;;;;4826847;29;20460;-85
2022/03/30 11:08:26;;;;;;;2.53;1.05;;;15.10;68.60;;;;;;4811218;29;20058;-86
2022/03/30 11:10:52;;;;;;;2.40;0.90;;;15.40;65.20;;;;;;4825575;29;20132;-86
2022/03/30 11:13:25;;;;;;;1.45;0.60;;;15.80;64.60;;;;;;4826550;29;20097;-86
2022/03/30 11:15:57;;;;;;;3.20;0.77;;;15.80;62.80;;;;;;4826564;29;20061;-85
2022/03/30 11:18:23;;;;;;;2.20;0.65;;;16.10;61.60;;;;;;4831033;29;20567;-86
2022/03/30 11:21:09;;;;;;;2.20;0.70;;;16.00;60.60;;;;;;4900061;29;20068;-85
2022/03/30 11:24:04;;;;;;;4.18;0.90;;;16.00;59.00;;;;;;4882657;29;20048;-86
2022/03/30 11:26:59;;;;;;;3.13;0.90;;;16.00;59.10;;;;;;4882531;29;20060;-86
2022/03/30 11:29:53;;;;;;;3.70;1.00;;;15.80;59.60;;;;;;4841733;29;20477;-85
2022/03/30 11:32:19;;;;;;;2.90;0.90;;;15.60;59.20;;;;;;4826207;29;20540;-86
2022/03/30 11:34:49;;;;;;;3.45;1.13;;;15.20;61.30;;;;;;4826334;29;20061;-85
2022/03/30 11:37:15;;;;;;;2.60;0.73;;;14.70;62.10;;;;;;4841458;29;20541;-85
2022/03/30 11:39:41;;;;;;;4.07;0.93;;;14.30;64.60;;;;;;4841665;29;20416;-86
2022/03/30 11:42:07;;;;;;;3.95;0.98;;;13.70;66.60;;;;;;4826447;29;20053;-86
2022/03/30 11:47:24;;;;;;;2.78;0.90;;;12.90;75.60;;;;;;4826409;29;20050;-85
2022/03/30 11:49:56;;;;;;;5.85;1.20;;;12.70;81.00;;;;;;4825994;29;20591;-86
2022/03/30 11:52:23;;;;;;;4.18;1.10;;;12.70;79.60;;;;;;4841086;29;20140;-86
2022/03/30 11:54:51;;;;;;;2.78;0.90;;;13.10;81.70;;;;;;4810299;29;20586;-85
2022/03/30 11:57:18;;;;;;;10.00;1.42;;;13.00;80.50;;;;;;4825967;29;20065;-85
2022/03/30 12:00:09;;;;;;;3.10;0.88;;;12.80;79.90;;;;;;4841424;29;20094;-85
2022/03/30 12:02:38;;;;;;;4.07;1.30;;;12.50;78.30;;;;;;4825816;29;20050;-85
2022/03/30 12:05:06;;;;;;;2.65;1.00;;;12.00;85.30;;;;;;4843787;29;20082;-85
2022/03/30 12:07:39;;;;;;;3.08;1.02;;;11.50;89.40;;;;;;4866718;29;20491;-85
2022/03/30 12:10:11;;;;;;;2.95;1.00;;;11.30;91.40;;;;;;4898907;29;20099;-85
2022/03/30 12:12:40;;;;;;;5.95;1.00;;;11.10;93.30;;;;;;4881593;29;20052;-84
2022/03/30 12:15:09;;;;;;;4.55;1.10;;;10.90;94.10;;;;;;4882351;29;20183;-84
2022/03/30 12:17:36;;;;;;;5.55;1.02;;;10.80;95.30;;;;;;4882192;29;20071;-84
2022/03/30 12:20:07;;;;;;;3.33;0.98;;;10.70;96.20;;;;;;4881714;29;20170;-84
2022/03/30 12:22:36;;;;;;;6.38;0.90;;;10.60;96.00;;;;;;4897446;29;20116;-84
2022/03/30 12:25:03;;;;;;;5.63;1.10;;;10.40;97.30;;;;;;4898421;29;20092;-84
2022/03/30 12:27:40;;;;;;;3.92;1.10;;;10.30;97.50;;;;;;4882079;29;20381;-84
2022/03/30 12:30:06;;;;;;;5.63;1.00;;;10.20;97.30;;;;;;4881951;29;20139;-84
2022/03/30 12:32:35;;;;;;;3.78;0.80;;;10.20;97.20;;;;;;4898295;29;20088;-84
2022/03/30 12:35:14;;;;;;;3.42;1.10;;;10.30;96.10;;;;;;4898354;29;20048;-85
2022/03/30 12:37:43;;;;;;;2.53;0.85;;;10.40;95.70;;;;;;4866064;29;20052;-85
2022/03/30 12:40:20;;;;;;;2.97;0.90;;;10.60;94.00;;;;;;4881050;29;20140;-84
2022/03/30 12:42:48;;;;;;;4.57;1.13;;;10.80;93.00;;;;;;4882016;29;20084;-84
2022/03/30 12:45:16;;;;;;;3.25;0.88;;;11.00;91.70;;;;;;4865513;29;20063;-84
2022/03/30 12:47:50;;;;;;;4.32;1.02;;;11.40;89.80;;;;;;4881624;29;20060;-85
2022/03/30 12:50:23;;;;;;;3.65;0.82;;;12.00;86.50;;;;;;4881439;29;20064;-85
2022/03/30 12:52:51;;;;;;;2.83;1.20;;;12.70;79.60;;;;;;4881525;29;20057;-85
2022/03/30 12:55:32;;;;;;;3.47;1.10;;;13.30;71.60;;;;;;4865769;29;20093;-85
2022/03/30 12:58:13;;;;;;;;;;;13.90;66.10;;;;;;4881779;29;20052;-84
2022/03/30 13:00:45;;;;;;;2.72;0.95;;;14.50;64.10;;;;;;4897798;29;19931;-85
2022/03/30 13:03:25;;;;;;;2.55;0.80;;;14.90;61.90;;;;;;4881082;29;20063;-85
2022/03/30 13:06:08;;;;;;;3.10;0.73;;;14.80;59.70;;;;;;4897960;29;20059;-85
2022/03/30 13:09:14;;;;;;;3.42;1.05;;;14.50;60.70;;;;;;4882394;29;20507;-86
2022/03/30 13:11:42;;;;;;;2.88;0.80;;;14.30;59.90;;;;;;4865724;29;20085;-85
2022/03/30 13:14:18;;;;;;;3.05;0.95;;;14.30;61.40;;;;;;4880767;29;20057;-85
2022/03/30 13:17:06;;;;;;;2.63;0.90;;;14.50;60.30;;;;;;4881259;29;20051;-85
2022/03/30 13:19:32;;;;;;;3.75;0.90;;;15.00;58.40;;;;;;4865012;29;20423;-86
2022/03/30 13:22:04;;;;;;;2.40;0.88;;;15.10;58.40;;;;;;4881093;29;20080;-85
2022/03/30 13:24:32;;;;;;;2.83;1.02;;;14.70;57.70;;;;;;4880109;29;20435;-85
2022/03/30 13:27:00;;;;;;;4.57;1.02;;;14.20;59.60;;;;;;4897532;29;20455;-85
2022/03/30 13:29:26;;;;;;;4.70;1.00;;;13.60;60.30;;;;;;4897603;29;20045;-85
2022/03/30 13:31:52;;;;;;;2.65;0.98;;;13.10;62.00;;;;;;4897431;29;20044;-85
2022/03/30 13:34:21;;;;;;;5.80;0.90;;;12.70;63.70;;;;;;4865358;29;20041;-85
2022/03/30 13:36:47;;;;;;;3.05;0.98;;;12.50;65.80;;;;;;4880862;29;20041;-85
2022/03/30 13:39:18;;;;;;;2.90;0.95;;;12.40;67.00;;;;;;4880974;29;20056;-85
2022/03/30 13:41:46;;;;;;;2.72;0.82;;;12.60;67.10;;;;;;4897598;29;20056;-85
2022/03/30 13:44:12;;;;;;;5.38;1.48;;;12.80;65.30;;;;;;4865432;29;20048;-85
2022/03/30 13:46:38;;;;;;;4.57;1.20;;;12.80;65.10;;;;;;4879951;29;20136;-86
2022/03/30 13:49:05;;;;;;;4.00;1.00;;;12.80;64.50;;;;;;4897219;29;20080;-85
2022/03/30 13:51:30;;;;;;;6.30;1.08;;;12.80;65.30;;;;;;4880600;29;20104;-86
2022/03/30 13:53:57;;;;;;;2.85;0.80;;;12.70;65.80;;;;;;4880576;29;20471;-86
2022/03/30 13:56:23;;;;;;;3.05;0.73;;;12.70;66.10;;;;;;4897849;29;20127;-86
2022/03/30 13:58:50;;;;;;;3.42;0.70;;;12.90;65.70;;;;;;4881497;29;20057;-86
2022/03/30 14:01:18;;;;;;;4.13;1.02;;;12.90;65.80;;;;;;4865767;29;20463;-86
2022/03/30 14:03:45;;;;;;;2.72;0.77;;;13.00;64.70;;;;;;4897604;29;20131;-84
2022/03/30 14:06:10;;;;;;;2.33;1.00;;;12.90;64.70;;;;;;4864875;29;20052;-86
2022/03/30 14:08:36;;;;;;;4.82;1.08;;;12.70;64.50;;;;;;4880849;29;20099;-85
2022/03/30 14:11:03;;;;;;;3.20;0.80;;;12.40;66.00;;;;;;4881387;29;20040;-85
2022/03/30 14:13:31;;;;;;;3.67;1.00;;;12.20;67.10;;;;;;4881258;29;20053;-85
2022/03/30 14:15:57;;;;;;;2.53;0.85;;;12.00;68.70;;;;;;4880922;29;20091;-85
2022/03/30 14:18:24;;;;;;;3.15;0.95;;;11.90;70.40;;;;;;4864878;29;20055;-85
2022/03/30 14:20:51;;;;;;;3.53;0.70;;;11.90;72.40;;;;;;4896863;29;20073;-84
2022/03/30 14:23:17;;;;;;;5.22;1.13;;;12.20;70.80;;;;;;4880176;29;20060;-85
2022/03/30 14:25:44;;;;;;;4.97;1.00;;;11.90;71.20;;;;;;4864899;29;20049;-86
2022/03/30 14:28:10;;;;;;;4.32;1.00;;;11.80;71.40;;;;;;4865318;29;20422;-85
2022/03/30 14:30:39;;;;;;;3.47;0.98;;;11.70;73.00;;;;;;4881693;29;20139;-85
2022/03/30 14:33:07;;;;;;;3.63;0.93;;;11.60;73.30;;;;;;4866131;29;20052;-85
2022/03/30 14:35:34;;;;;;;4.22;0.85;;;11.50;73.60;;;;;;4880771;29;20059;-85
2022/03/30 14:38:11;;;;;;;2.70;0.88;;;11.50;74.10;;;;;;4880106;29;20048;-85
2022/03/30 14:40:40;;;;;;;4.65;1.10;;;11.50;71.80;;;;;;4880508;29;20080;-86
2022/03/30 14:43:06;;;;;;;4.72;0.90;;;11.60;72.00;;;;;;4864464;29;20503;-85
2022/03/30 14:45:32;;;;;;;5.95;0.90;;;11.70;72.40;;;;;;4864738;29;20108;-86
2022/03/30 14:47:58;;;;;;;4.18;0.63;;;11.90;72.10;;;;;;4866400;29;20072;-86
2022/03/30 14:50:24;;;;;;;2.65;0.90;;;12.00;70.80;;;;;;4882701;29;20075;-85
2022/03/30 14:52:50;;;;;;;4.57;0.90;;;11.90;70.30;;;;;;4898924;29;20048;-85
2022/03/30 14:55:16;;;;;;;1.90;0.75;;;11.70;71.10;;;;;;4882950;29;20041;-86
2022/03/30 14:57:42;;;;;;;5.25;0.80;;;11.50;72.90;;;;;;4895945;29;20527;-85
2022/03/30 15:00:11;;;;;;;2.38;1.00;;;11.40;75.20;;;;;;4867314;29;20049;-86
2022/03/30 15:02:38;;;;;;;3.70;0.98;;;11.00;75.30;;;;;;4882764;29;20060;-85
2022/03/30 15:05:05;;;;;;;3.70;1.05;;;10.80;78.90;;;;;;4899846;29;20059;-86
2022/03/30 15:07:32;;;;;;;3.35;1.10;;;10.70;81.00;;;;;;4867604;29;20452;-86
2022/03/30 15:09:58;;;;;;;5.50;1.35;;;10.60;84.10;;;;;;4899941;29;20104;-85
2022/03/30 15:12:23;;;;;;;4.45;1.27;;;10.50;86.90;;;;;;4899634;29;20052;-85
2022/03/30 15:14:50;;;;;;;2.58;1.08;;;10.50;85.40;;;;;;4899732;29;20052;-85
2022/03/30 15:17:16;;;;;;;4.28;1.40;;;10.40;85.80;;;;;;4882884;29;20095;-85
2022/03/30 15:19:42;;;;;;;6.15;1.80;;;10.30;85.50;;;;;;4899642;29;20064;-86
2022/03/30 15:22:09;;;;;;;6.30;1.45;;;10.30;87.60;;;;;;4882448;29;20491;-85
2022/03/30 15:24:35;;;;;;;5.13;1.13;;;10.20;87.60;;;;;;4898055;29;20499;-85